Phoenix, Arizona
Traffic Map
Current Weather Conditions
Phoenix, Arizona
Overcast
Overcast
55°
Feels Like: 55°
Wind Chill: 55° Ceiling: 16000
Heat Index: 55° Visibility: 10mi
Dew Point: 36° Wind: 9mph
Humidity: 49% Direction: 90° (E)
Pressure: 30.08in Gusts: 0mph
Raw Report DataKPHX 161151Z 09008KT 10SM BKN160 OVC250 13/02 A3008 RMK AO2 SLP177 T01280022 10150 20128 53004
Traffic Incident Summary
Active as of:
Severity:
Category:
InformationThere was an issue retrieving the traffic information for this location. Please try a different location or try again shortly.
Advertisements